createdAt,value
2018-12-08T00:01:07.980Z,9.50
2018-12-08T00:06:12.800Z,9.10
2018-12-08T00:11:17.912Z,9.00
2018-12-08T00:16:22.622Z,9.00
2018-12-08T00:21:27.388Z,9.20
2018-12-08T00:26:31.946Z,9.40
2018-12-08T00:31:44.316Z,9.40
2018-12-08T00:36:48.998Z,9.50
2018-12-08T00:41:53.852Z,9.60
2018-12-08T00:46:58.505Z,9.50
2018-12-08T00:52:03.242Z,9.30
2018-12-08T00:57:07.947Z,9.30
2018-12-08T01:02:12.664Z,9.40
2018-12-08T01:07:17.322Z,9.60
2018-12-08T01:12:22.158Z,9.60
2018-12-08T01:17:26.793Z,9.70
2018-12-08T01:22:31.230Z,9.50
2018-12-08T01:27:35.837Z,9.30
2018-12-08T01:32:40.455Z,9.40
2018-12-08T01:37:45.136Z,9.60
2018-12-08T01:42:53.674Z,9.40
2018-12-08T01:47:58.389Z,9.50
2018-12-08T01:53:03.071Z,9.60
2018-12-08T01:58:07.749Z,9.60
2018-12-08T02:03:12.303Z,9.70
2018-12-08T02:08:17.024Z,9.50
2018-12-08T02:13:21.760Z,9.40
2018-12-08T02:18:26.353Z,9.40
2018-12-08T02:23:30.962Z,9.30
2018-12-08T02:28:35.688Z,9.20
2018-12-08T02:33:40.310Z,9.30
2018-12-08T02:38:45.053Z,9.50
2018-12-08T02:43:49.724Z,9.50
2018-12-08T02:48:54.399Z,9.50
2018-12-08T02:53:59.228Z,9.50
2018-12-08T02:59:03.997Z,9.60
2018-12-08T03:04:08.838Z,9.70
2018-12-08T03:09:13.331Z,9.80
2018-12-08T03:14:18.005Z,9.80
2018-12-08T03:19:22.620Z,9.70
2018-12-08T03:24:27.337Z,9.70
2018-12-08T03:29:32.003Z,9.70
2018-12-08T03:34:36.688Z,9.80
2018-12-08T03:39:41.373Z,9.90
2018-12-08T03:44:46.224Z,9.90
2018-12-08T03:49:51.123Z,9.90
2018-12-08T03:54:55.853Z,9.90
2018-12-08T04:00:00.534Z,9.90
2018-12-08T04:05:16.857Z,9.80
2018-12-08T04:10:21.521Z,9.90
2018-12-08T04:15:31.096Z,9.90
2018-12-08T04:20:39.060Z,9.90
2018-12-08T04:25:48.719Z,9.90
2018-12-08T04:30:53.382Z,9.90
2018-12-08T04:35:58.041Z,9.90
2018-12-08T04:41:02.803Z,9.80
2018-12-08T04:46:07.545Z,9.70
2018-12-08T04:51:12.533Z,9.50
2018-12-08T04:56:17.403Z,9.50
2018-12-08T05:01:22.872Z,9.60
2018-12-08T05:06:28.963Z,9.70
2018-12-08T05:11:34.220Z,9.70
2018-12-08T05:16:39.224Z,9.80
2018-12-08T05:21:44.326Z,9.90
2018-12-08T05:26:49.330Z,9.90
2018-12-08T05:31:54.940Z,10.00
2018-12-08T05:37:00.681Z,10.00
2018-12-08T05:42:06.541Z,9.80
2018-12-08T05:52:39.747Z,9.40
2018-12-08T05:57:44.506Z,9.40
2018-12-08T06:02:49.334Z,9.50
2018-12-08T06:07:53.877Z,9.50
2018-12-08T06:12:58.612Z,9.60
2018-12-08T06:18:03.277Z,9.70
2018-12-08T06:23:08.187Z,9.80
2018-12-08T06:28:21.474Z,9.80
2018-12-08T06:33:26.338Z,9.90
2018-12-08T06:38:31.213Z,9.90
2018-12-08T06:43:35.779Z,10.00
2018-12-08T06:48:40.370Z,10.10
2018-12-08T06:53:45.083Z,10.10
2018-12-08T06:58:49.830Z,10.20
2018-12-08T07:03:54.637Z,10.10
2018-12-08T07:08:59.892Z,10.10
2018-12-08T07:14:05.116Z,10.20
2018-12-08T07:19:10.213Z,10.00
2018-12-08T07:24:15.211Z,10.00
2018-12-08T07:29:19.942Z,10.10
2018-12-08T07:34:25.825Z,10.10
2018-12-08T07:39:31.086Z,10.20
2018-12-08T07:44:36.747Z,10.20
2018-12-08T07:49:41.511Z,10.20
2018-12-08T07:54:46.442Z,10.20
2018-12-08T07:59:51.500Z,10.20
2018-12-08T08:05:08.884Z,10.20
2018-12-08T08:10:14.690Z,10.20
2018-12-08T08:15:20.071Z,10.20
2018-12-08T08:20:25.054Z,10.20
2018-12-08T08:25:30.445Z,10.20
2018-12-08T08:30:35.256Z,10.30
2018-12-08T08:35:40.145Z,10.40
2018-12-08T08:40:44.886Z,10.40
2018-12-08T08:45:49.633Z,10.40
2018-12-08T08:53:50.123Z,10.30
2018-12-08T08:58:54.819Z,10.30
2018-12-08T09:03:59.095Z,10.30
2018-12-08T09:09:04.428Z,10.40
2018-12-08T09:14:13.209Z,10.40
2018-12-08T09:19:14.126Z,10.40
2018-12-08T09:24:17.951Z,10.50
2018-12-08T09:29:21.731Z,10.50
2018-12-08T09:34:25.671Z,10.50
2018-12-08T09:39:29.326Z,10.50
2018-12-08T09:44:33.073Z,10.60
2018-12-08T09:49:36.952Z,10.60
2018-12-08T09:54:40.574Z,10.70
2018-12-08T09:59:44.161Z,10.70
2018-12-08T10:04:47.714Z,10.80
2018-12-08T10:09:51.413Z,10.80
2018-12-08T10:14:55.111Z,10.80
2018-12-08T10:19:58.729Z,10.90
2018-12-08T10:25:02.366Z,10.90
2018-12-08T10:30:07.589Z,10.90
2018-12-08T10:35:12.347Z,10.90
2018-12-08T10:40:16.095Z,11.00
2018-12-08T10:45:19.785Z,11.10
2018-12-08T10:50:23.425Z,11.10
2018-12-08T10:55:27.090Z,11.20
2018-12-08T11:00:35.200Z,11.30
2018-12-08T11:05:38.770Z,11.40
2018-12-08T11:10:42.379Z,11.40
2018-12-08T11:15:46.124Z,11.40
2018-12-08T11:20:49.924Z,11.40
2018-12-08T11:25:53.551Z,11.40
2018-12-08T11:30:57.155Z,11.50
2018-12-08T11:36:00.848Z,11.50
2018-12-08T11:41:04.619Z,11.50
2018-12-08T11:46:08.413Z,11.50
2018-12-08T11:51:12.312Z,11.60
2018-12-08T11:56:16.179Z,11.60
2018-12-08T12:01:19.948Z,11.60
2018-12-08T12:06:23.761Z,11.70
2018-12-08T12:11:27.444Z,11.80
2018-12-08T12:16:31.066Z,11.70
2018-12-08T12:21:34.849Z,11.80
2018-12-08T12:26:38.750Z,11.70
2018-12-08T12:31:42.395Z,11.60
2018-12-08T12:36:46.259Z,11.70
2018-12-08T12:41:49.985Z,11.70
2018-12-08T12:46:53.568Z,11.70
2018-12-08T12:51:57.168Z,11.60
2018-12-08T12:57:00.818Z,11.60
2018-12-08T13:02:04.545Z,11.70
2018-12-08T13:07:08.412Z,11.60
2018-12-08T13:12:12.468Z,11.60
2018-12-08T13:17:16.263Z,11.70
2018-12-08T13:22:20.084Z,11.70
2018-12-08T13:27:24.933Z,11.60
2018-12-08T13:32:28.674Z,11.60
2018-12-08T13:37:32.649Z,11.60
2018-12-08T13:42:36.486Z,11.60
2018-12-08T13:47:40.289Z,11.60
2018-12-08T13:52:44.247Z,11.60
2018-12-08T13:57:48.007Z,11.60
2018-12-08T14:02:51.809Z,11.60
2018-12-08T14:07:55.606Z,11.60
2018-12-08T14:12:59.528Z,11.50
2018-12-08T14:18:03.347Z,11.50
2018-12-08T14:23:07.193Z,11.40
2018-12-08T14:28:11.347Z,11.30
2018-12-08T14:33:15.460Z,11.40
2018-12-08T14:38:19.447Z,11.40
2018-12-08T14:43:23.019Z,11.40
2018-12-08T14:48:27.397Z,11.30
2018-12-08T14:53:31.319Z,11.20
2018-12-08T14:58:35.015Z,11.30
2018-12-08T15:03:54.214Z,11.30
2018-12-08T15:08:58.101Z,11.20
2018-12-08T15:14:01.838Z,11.20
2018-12-08T15:19:05.655Z,11.20
2018-12-08T15:24:09.380Z,11.00
2018-12-08T15:29:13.340Z,10.90
2018-12-08T15:34:16.935Z,10.90
2018-12-08T15:39:20.665Z,10.80
2018-12-08T15:44:24.247Z,10.70
2018-12-08T15:49:29.750Z,10.70
2018-12-08T15:54:34.917Z,10.60
2018-12-08T15:59:39.687Z,10.60
2018-12-08T16:04:44.257Z,10.80
2018-12-08T16:09:48.573Z,10.80
2018-12-08T16:14:53.532Z,10.80
2018-12-08T16:19:57.916Z,10.70
2018-12-08T16:25:02.456Z,10.80
2018-12-08T16:30:08.800Z,10.70
2018-12-08T16:35:12.694Z,10.40
2018-12-08T16:51:26.880Z,9.80
2018-12-08T16:56:30.769Z,9.80
2018-12-08T17:12:46.438Z,10.00
2018-12-08T17:17:50.121Z,10.10
2018-12-08T17:22:53.860Z,10.20
2018-12-08T17:27:57.581Z,10.20
2018-12-08T17:33:01.307Z,9.80
2018-12-08T17:38:05.054Z,9.50
2018-12-08T17:43:08.755Z,9.50
2018-12-08T17:59:29.446Z,9.40
2018-12-08T18:04:33.485Z,9.60
2018-12-08T18:09:38.091Z,9.80
2018-12-08T18:14:42.587Z,9.90
2018-12-08T18:19:46.626Z,9.50
2018-12-08T18:24:51.126Z,9.20
2018-12-08T18:29:55.058Z,8.90
2018-12-08T18:34:59.187Z,8.90
2018-12-08T18:40:04.006Z,8.70
2018-12-08T18:45:08.639Z,8.70
2018-12-08T18:50:13.302Z,8.70
2018-12-08T18:55:19.046Z,8.80
2018-12-08T19:00:24.718Z,8.80
2018-12-08T19:05:31.684Z,8.90
2018-12-08T19:22:04.766Z,9.00
2018-12-08T19:27:09.826Z,9.20
2018-12-08T19:32:15.566Z,9.30
2018-12-08T19:37:20.706Z,9.40
2018-12-08T19:42:25.726Z,9.50
2018-12-08T19:47:30.683Z,9.50
2018-12-08T19:52:36.504Z,9.40
2018-12-08T19:57:42.663Z,9.50
2018-12-08T20:02:47.346Z,9.50
2018-12-08T20:07:52.056Z,9.40
2018-12-08T20:12:57.799Z,9.20
2018-12-08T20:18:02.442Z,9.10
2018-12-08T20:23:07.117Z,9.20
2018-12-08T20:28:12.015Z,9.20
2018-12-08T20:33:16.970Z,9.10
2018-12-08T20:38:21.832Z,9.00
2018-12-08T20:43:26.660Z,9.10
2018-12-08T20:48:31.534Z,9.10
2018-12-08T20:53:37.235Z,9.10
2018-12-08T21:04:16.484Z,9.40
2018-12-08T21:09:21.282Z,9.30
2018-12-08T21:14:26.419Z,9.20
2018-12-08T21:19:31.434Z,9.10
2018-12-08T21:24:37.176Z,9.20
2018-12-08T21:29:42.769Z,9.30
2018-12-08T21:34:47.527Z,9.30
2018-12-08T21:39:52.352Z,9.30
2018-12-08T21:44:57.075Z,9.20
2018-12-08T21:50:02.064Z,9.30
2018-12-08T21:55:06.665Z,9.20
2018-12-08T22:00:11.430Z,9.10
2018-12-08T22:05:16.436Z,9.00
2018-12-08T22:10:21.209Z,9.00
2018-12-08T22:15:25.866Z,9.20
2018-12-08T22:20:30.664Z,9.40
2018-12-08T22:25:35.244Z,9.40
2018-12-08T22:30:39.806Z,9.40
2018-12-08T22:35:44.546Z,9.30
2018-12-08T22:40:49.463Z,9.20
2018-12-08T22:45:54.126Z,9.10
2018-12-08T22:50:58.739Z,9.10
2018-12-08T22:56:03.318Z,9.20
2018-12-08T23:01:07.937Z,9.40
2018-12-08T23:06:13.019Z,9.60
2018-12-08T23:11:19.025Z,9.60
2018-12-08T23:16:23.634Z,9.40
2018-12-08T23:21:28.415Z,9.40
2018-12-08T23:26:32.943Z,9.40
2018-12-08T23:31:37.505Z,9.40
2018-12-08T23:36:42.501Z,9.50
2018-12-08T23:41:47.221Z,9.60
2018-12-08T23:46:52.024Z,9.60
2018-12-08T23:51:56.843Z,9.40
2018-12-08T23:57:01.603Z,9.10
